sensor_id;sensor_type;location;lat;lon;timestamp;P1;durP1;ratioP1;P2;durP2;ratioP2
66478;SDS011;53294;47.912;13.526;2022-10-16T00:01:26;3.75;;;1.33;;
66478;SDS011;53294;47.912;13.526;2022-10-16T00:03:55;2.20;;;1.17;;
66478;SDS011;53294;47.912;13.526;2022-10-16T00:06:23;1.55;;;1.30;;
66478;SDS011;53294;47.912;13.526;2022-10-16T00:08:51;2.30;;;1.55;;
66478;SDS011;53294;47.912;13.526;2022-10-16T00:11:19;4.35;;;1.33;;
66478;SDS011;53294;47.912;13.526;2022-10-16T00:13:51;3.50;;;1.63;;
66478;SDS011;53294;47.912;13.526;2022-10-16T00:16:20;2.22;;;1.30;;
66478;SDS011;53294;47.912;13.526;2022-10-16T00:18:47;2.83;;;1.83;;
66478;SDS011;53294;47.912;13.526;2022-10-16T00:21:15;2.45;;;1.50;;
66478;SDS011;53294;47.912;13.526;2022-10-16T00:23:44;2.28;;;1.13;;
66478;SDS011;53294;47.912;13.526;2022-10-16T00:26:14;3.28;;;1.20;;
66478;SDS011;53294;47.912;13.526;2022-10-16T00:28:44;3.67;;;1.45;;
66478;SDS011;53294;47.912;13.526;2022-10-16T00:31:12;2.63;;;1.38;;
66478;SDS011;53294;47.912;13.526;2022-10-16T00:33:39;4.75;;;1.60;;
66478;SDS011;53294;47.912;13.526;2022-10-16T00:36:07;2.38;;;1.20;;
66478;SDS011;53294;47.912;13.526;2022-10-16T00:38:36;2.45;;;1.38;;
66478;SDS011;53294;47.912;13.526;2022-10-16T00:41:06;3.22;;;1.60;;
66478;SDS011;53294;47.912;13.526;2022-10-16T00:43:55;3.03;;;1.40;;
66478;SDS011;53294;47.912;13.526;2022-10-16T00:49:06;2.25;;;1.27;;
66478;SDS011;53294;47.912;13.526;2022-10-16T00:51:38;1.70;;;1.20;;
66478;SDS011;53294;47.912;13.526;2022-10-16T00:54:11;3.70;;;1.58;;
66478;SDS011;53294;47.912;13.526;2022-10-16T00:56:41;2.08;;;1.35;;
66478;SDS011;53294;47.912;13.526;2022-10-16T00:59:43;3.45;;;1.40;;
66478;SDS011;53294;47.912;13.526;2022-10-16T01:02:05;3.15;;;1.35;;
66478;SDS011;53294;47.912;13.526;2022-10-16T01:04:39;4.72;;;1.52;;
66478;SDS011;53294;47.912;13.526;2022-10-16T01:12:11;3.35;;;1.88;;
66478;SDS011;53294;47.912;13.526;2022-10-16T01:14:47;3.53;;;1.67;;
66478;SDS011;53294;47.912;13.526;2022-10-16T01:17:32;3.08;;;1.65;;
66478;SDS011;53294;47.912;13.526;2022-10-16T01:20:14;4.47;;;2.00;;
66478;SDS011;53294;47.912;13.526;2022-10-16T01:28:28;2.53;;;1.40;;
66478;SDS011;53294;47.912;13.526;2022-10-16T01:31:02;3.17;;;1.38;;
66478;SDS011;53294;47.912;13.526;2022-10-16T01:33:38;2.17;;;1.08;;
66478;SDS011;53294;47.912;13.526;2022-10-16T01:36:11;1.95;;;1.30;;
66478;SDS011;53294;47.912;13.526;2022-10-16T01:38:42;2.22;;;1.40;;
66478;SDS011;53294;47.912;13.526;2022-10-16T01:41:21;2.55;;;1.35;;
66478;SDS011;53294;47.912;13.526;2022-10-16T01:43:57;1.95;;;1.17;;
66478;SDS011;53294;47.912;13.526;2022-10-16T01:46:31;2.55;;;1.20;;
66478;SDS011;53294;47.912;13.526;2022-10-16T01:49:00;2.05;;;1.10;;
66478;SDS011;53294;47.912;13.526;2022-10-16T01:51:29;2.75;;;1.23;;
66478;SDS011;53294;47.912;13.526;2022-10-16T01:53:57;1.60;;;1.05;;
66478;SDS011;53294;47.912;13.526;2022-10-16T01:56:26;1.98;;;1.10;;
66478;SDS011;53294;47.912;13.526;2022-10-16T01:58:57;2.85;;;1.30;;
66478;SDS011;53294;47.912;13.526;2022-10-16T02:01:28;3.07;;;1.23;;
66478;SDS011;53294;47.912;13.526;2022-10-16T02:03:59;4.20;;;1.30;;
66478;SDS011;53294;47.912;13.526;2022-10-16T02:06:28;3.42;;;1.25;;
66478;SDS011;53294;47.912;13.526;2022-10-16T02:08:55;4.68;;;1.23;;
66478;SDS011;53294;47.912;13.526;2022-10-16T02:11:22;2.97;;;1.23;;
66478;SDS011;53294;47.912;13.526;2022-10-16T02:13:51;2.50;;;1.45;;
66478;SDS011;53294;47.912;13.526;2022-10-16T02:16:23;2.85;;;1.23;;
66478;SDS011;53294;47.912;13.526;2022-10-16T02:18:59;1.50;;;1.17;;
66478;SDS011;53294;47.912;13.526;2022-10-16T02:21:28;1.95;;;1.30;;
66478;SDS011;53294;47.912;13.526;2022-10-16T02:29:28;2.83;;;1.30;;
66478;SDS011;53294;47.912;13.526;2022-10-16T02:31:56;2.80;;;1.48;;
66478;SDS011;53294;47.912;13.526;2022-10-16T02:34:27;2.38;;;1.23;;
66478;SDS011;53294;47.912;13.526;2022-10-16T02:36:56;1.55;;;1.00;;
66478;SDS011;53294;47.912;13.526;2022-10-16T02:39:27;3.13;;;1.13;;
66478;SDS011;53294;47.912;13.526;2022-10-16T02:41:55;2.75;;;1.25;;
66478;SDS011;53294;47.912;13.526;2022-10-16T02:44:22;1.77;;;1.15;;
66478;SDS011;53294;47.912;13.526;2022-10-16T02:46:48;2.38;;;1.30;;
66478;SDS011;53294;47.912;13.526;2022-10-16T02:49:15;5.47;;;1.20;;
66478;SDS011;53294;47.912;13.526;2022-10-16T02:51:41;2.67;;;1.08;;
66478;SDS011;53294;47.912;13.526;2022-10-16T02:54:08;2.33;;;1.30;;
66478;SDS011;53294;47.912;13.526;2022-10-16T02:56:35;1.80;;;0.90;;
66478;SDS011;53294;47.912;13.526;2022-10-16T02:59:01;2.53;;;1.10;;
66478;SDS011;53294;47.912;13.526;2022-10-16T03:01:28;3.25;;;1.10;;
66478;SDS011;53294;47.912;13.526;2022-10-16T03:03:55;2.28;;;1.42;;
66478;SDS011;53294;47.912;13.526;2022-10-16T03:06:22;2.78;;;1.08;;
66478;SDS011;53294;47.912;13.526;2022-10-16T03:08:49;1.15;;;0.88;;
66478;SDS011;53294;47.912;13.526;2022-10-16T03:11:16;1.52;;;0.82;;
66478;SDS011;53294;47.912;13.526;2022-10-16T03:13:42;1.55;;;1.02;;
66478;SDS011;53294;47.912;13.526;2022-10-16T03:16:09;0.95;;;0.73;;
66478;SDS011;53294;47.912;13.526;2022-10-16T03:18:36;2.58;;;1.10;;
66478;SDS011;53294;47.912;13.526;2022-10-16T03:21:03;2.03;;;1.20;;
66478;SDS011;53294;47.912;13.526;2022-10-16T03:23:29;4.03;;;1.17;;
66478;SDS011;53294;47.912;13.526;2022-10-16T03:26:01;1.13;;;1.00;;
66478;SDS011;53294;47.912;13.526;2022-10-16T03:28:28;1.88;;;0.90;;
66478;SDS011;53294;47.912;13.526;2022-10-16T03:30:54;3.17;;;1.20;;
66478;SDS011;53294;47.912;13.526;2022-10-16T03:33:21;1.95;;;1.20;;
66478;SDS011;53294;47.912;13.526;2022-10-16T03:35:54;7.20;;;1.98;;
66478;SDS011;53294;47.912;13.526;2022-10-16T03:38:21;1.88;;;1.00;;
66478;SDS011;53294;47.912;13.526;2022-10-16T03:40:48;1.73;;;1.10;;
66478;SDS011;53294;47.912;13.526;2022-10-16T03:43:15;1.75;;;1.02;;
66478;SDS011;53294;47.912;13.526;2022-10-16T03:45:42;3.03;;;1.50;;
66478;SDS011;53294;47.912;13.526;2022-10-16T03:48:08;2.00;;;1.17;;
66478;SDS011;53294;47.912;13.526;2022-10-16T03:50:35;2.00;;;1.20;;
66478;SDS011;53294;47.912;13.526;2022-10-16T03:53:02;3.90;;;1.08;;
66478;SDS011;53294;47.912;13.526;2022-10-16T03:55:28;2.13;;;0.90;;
66478;SDS011;53294;47.912;13.526;2022-10-16T03:57:55;2.90;;;1.17;;
66478;SDS011;53294;47.912;13.526;2022-10-16T04:00:21;1.95;;;1.08;;
66478;SDS011;53294;47.912;13.526;2022-10-16T04:02:48;3.00;;;1.10;;
66478;SDS011;53294;47.912;13.526;2022-10-16T04:05:15;2.45;;;1.20;;
66478;SDS011;53294;47.912;13.526;2022-10-16T04:07:41;1.33;;;0.90;;
66478;SDS011;53294;47.912;13.526;2022-10-16T04:10:08;2.30;;;1.15;;
66478;SDS011;53294;47.912;13.526;2022-10-16T04:12:35;1.63;;;1.08;;
66478;SDS011;53294;47.912;13.526;2022-10-16T04:15:02;3.20;;;0.90;;
66478;SDS011;53294;47.912;13.526;2022-10-16T04:17:29;1.65;;;1.00;;
66478;SDS011;53294;47.912;13.526;2022-10-16T04:19:56;1.95;;;1.08;;
66478;SDS011;53294;47.912;13.526;2022-10-16T04:22:22;2.70;;;0.80;;
66478;SDS011;53294;47.912;13.526;2022-10-16T04:24:49;2.40;;;1.08;;
66478;SDS011;53294;47.912;13.526;2022-10-16T04:27:15;1.63;;;1.15;;
66478;SDS011;53294;47.912;13.526;2022-10-16T04:29:42;1.42;;;1.13;;
66478;SDS011;53294;47.912;13.526;2022-10-16T04:32:09;1.38;;;0.90;;
66478;SDS011;53294;47.912;13.526;2022-10-16T04:34:36;2.88;;;1.23;;
66478;SDS011;53294;47.912;13.526;2022-10-16T04:37:04;1.27;;;1.10;;
66478;SDS011;53294;47.912;13.526;2022-10-16T04:39:31;1.65;;;0.95;;
66478;SDS011;53294;47.912;13.526;2022-10-16T04:41:57;1.63;;;1.10;;
66478;SDS011;53294;47.912;13.526;2022-10-16T04:44:24;1.67;;;1.10;;
66478;SDS011;53294;47.912;13.526;2022-10-16T04:46:51;1.38;;;0.90;;
66478;SDS011;53294;47.912;13.526;2022-10-16T04:49:17;2.80;;;1.00;;
66478;SDS011;53294;47.912;13.526;2022-10-16T04:51:44;1.40;;;1.00;;
66478;SDS011;53294;47.912;13.526;2022-10-16T04:54:11;2.20;;;1.20;;
66478;SDS011;53294;47.912;13.526;2022-10-16T04:56:37;1.90;;;1.02;;
66478;SDS011;53294;47.912;13.526;2022-10-16T04:59:12;3.42;;;1.30;;
66478;SDS011;53294;47.912;13.526;2022-10-16T05:01:40;2.88;;;1.08;;
66478;SDS011;53294;47.912;13.526;2022-10-16T05:04:07;2.05;;;1.30;;
66478;SDS011;53294;47.912;13.526;2022-10-16T05:06:34;3.90;;;1.42;;
66478;SDS011;53294;47.912;13.526;2022-10-16T05:09:01;2.90;;;1.40;;
66478;SDS011;53294;47.912;13.526;2022-10-16T05:11:28;2.33;;;1.27;;
66478;SDS011;53294;47.912;13.526;2022-10-16T05:13:54;1.45;;;1.20;;
66478;SDS011;53294;47.912;13.526;2022-10-16T05:16:21;4.30;;;1.42;;
66478;SDS011;53294;47.912;13.526;2022-10-16T05:18:48;1.95;;;1.10;;
66478;SDS011;53294;47.912;13.526;2022-10-16T05:21:21;2.97;;;1.08;;
66478;SDS011;53294;47.912;13.526;2022-10-16T05:23:47;5.15;;;1.27;;
66478;SDS011;53294;47.912;13.526;2022-10-16T05:26:14;1.45;;;1.17;;
66478;SDS011;53294;47.912;13.526;2022-10-16T05:28:41;1.63;;;1.00;;
66478;SDS011;53294;47.912;13.526;2022-10-16T05:31:08;1.88;;;1.00;;
66478;SDS011;53294;47.912;13.526;2022-10-16T05:33:35;2.85;;;1.25;;
66478;SDS011;53294;47.912;13.526;2022-10-16T05:36:06;2.95;;;1.20;;
66478;SDS011;53294;47.912;13.526;2022-10-16T05:38:35;3.95;;;1.10;;
66478;SDS011;53294;47.912;13.526;2022-10-16T05:41:02;2.22;;;1.30;;
66478;SDS011;53294;47.912;13.526;2022-10-16T05:43:31;2.47;;;1.00;;
66478;SDS011;53294;47.912;13.526;2022-10-16T05:46:01;2.63;;;1.30;;
66478;SDS011;53294;47.912;13.526;2022-10-16T05:48:30;2.97;;;1.23;;
66478;SDS011;53294;47.912;13.526;2022-10-16T05:50:58;2.08;;;1.20;;
66478;SDS011;53294;47.912;13.526;2022-10-16T05:53:29;3.15;;;1.27;;
66478;SDS011;53294;47.912;13.526;2022-10-16T05:55:58;1.70;;;1.00;;
66478;SDS011;53294;47.912;13.526;2022-10-16T05:58:28;1.50;;;1.00;;
66478;SDS011;53294;47.912;13.526;2022-10-16T06:00:56;1.63;;;1.20;;
66478;SDS011;53294;47.912;13.526;2022-10-16T06:03:28;3.05;;;1.20;;
66478;SDS011;53294;47.912;13.526;2022-10-16T06:05:55;2.33;;;1.08;;
66478;SDS011;53294;47.912;13.526;2022-10-16T06:08:22;1.52;;;1.17;;
66478;SDS011;53294;47.912;13.526;2022-10-16T06:10:57;1.88;;;1.08;;
66478;SDS011;53294;47.912;13.526;2022-10-16T06:13:27;2.17;;;1.23;;
66478;SDS011;53294;47.912;13.526;2022-10-16T06:15:56;1.88;;;1.27;;
66478;SDS011;53294;47.912;13.526;2022-10-16T06:18:24;1.42;;;1.13;;
66478;SDS011;53294;47.912;13.526;2022-10-16T06:20:52;2.88;;;1.17;;
66478;SDS011;53294;47.912;13.526;2022-10-16T06:23:19;3.00;;;1.15;;
66478;SDS011;53294;47.912;13.526;2022-10-16T06:25:46;1.75;;;1.05;;
66478;SDS011;53294;47.912;13.526;2022-10-16T06:28:13;2.13;;;1.30;;
66478;SDS011;53294;47.912;13.526;2022-10-16T06:30:41;3.13;;;1.40;;
66478;SDS011;53294;47.912;13.526;2022-10-16T06:33:10;2.38;;;1.50;;
66478;SDS011;53294;47.912;13.526;2022-10-16T06:35:37;3.08;;;1.55;;
66478;SDS011;53294;47.912;13.526;2022-10-16T06:38:04;3.47;;;1.30;;
66478;SDS011;53294;47.912;13.526;2022-10-16T06:40:30;1.90;;;1.20;;
66478;SDS011;53294;47.912;13.526;2022-10-16T06:42:57;3.55;;;1.52;;
66478;SDS011;53294;47.912;13.526;2022-10-16T06:45:23;4.13;;;1.45;;
66478;SDS011;53294;47.912;13.526;2022-10-16T06:47:50;4.07;;;1.73;;
66478;SDS011;53294;47.912;13.526;2022-10-16T06:50:17;8.23;;;3.70;;
66478;SDS011;53294;47.912;13.526;2022-10-16T06:52:43;12.65;;;5.05;;
66478;SDS011;53294;47.912;13.526;2022-10-16T06:55:10;7.72;;;3.30;;
66478;SDS011;53294;47.912;13.526;2022-10-16T06:57:36;4.18;;;2.33;;
66478;SDS011;53294;47.912;13.526;2022-10-16T07:00:03;10.95;;;4.22;;
66478;SDS011;53294;47.912;13.526;2022-10-16T07:02:30;8.95;;;2.90;;
66478;SDS011;53294;47.912;13.526;2022-10-16T07:04:57;6.72;;;2.40;;
66478;SDS011;53294;47.912;13.526;2022-10-16T07:07:24;3.45;;;1.90;;
66478;SDS011;53294;47.912;13.526;2022-10-16T07:09:52;13.38;;;4.78;;
66478;SDS011;53294;47.912;13.526;2022-10-16T07:12:19;7.88;;;3.25;;
66478;SDS011;53294;47.912;13.526;2022-10-16T07:14:46;5.63;;;2.03;;
66478;SDS011;53294;47.912;13.526;2022-10-16T07:17:12;5.18;;;2.00;;
66478;SDS011;53294;47.912;13.526;2022-10-16T07:19:39;5.38;;;2.03;;
66478;SDS011;53294;47.912;13.526;2022-10-16T07:22:06;3.83;;;1.50;;
66478;SDS011;53294;47.912;13.526;2022-10-16T07:24:32;4.93;;;1.77;;
66478;SDS011;53294;47.912;13.526;2022-10-16T07:26:59;7.00;;;2.92;;
66478;SDS011;53294;47.912;13.526;2022-10-16T07:29:26;5.72;;;2.10;;
66478;SDS011;53294;47.912;13.526;2022-10-16T07:31:52;9.40;;;2.40;;
66478;SDS011;53294;47.912;13.526;2022-10-16T07:34:19;3.65;;;1.63;;
66478;SDS011;53294;47.912;13.526;2022-10-16T07:36:48;3.72;;;1.55;;
66478;SDS011;53294;47.912;13.526;2022-10-16T07:39:16;2.60;;;1.20;;
66478;SDS011;53294;47.912;13.526;2022-10-16T07:41:43;2.55;;;1.20;;
66478;SDS011;53294;47.912;13.526;2022-10-16T07:44:10;3.10;;;1.48;;
66478;SDS011;53294;47.912;13.526;2022-10-16T07:46:37;4.88;;;1.70;;
66478;SDS011;53294;47.912;13.526;2022-10-16T07:49:03;4.10;;;1.40;;
66478;SDS011;53294;47.912;13.526;2022-10-16T07:51:30;3.20;;;1.52;;
66478;SDS011;53294;47.912;13.526;2022-10-16T07:53:57;4.65;;;1.40;;
66478;SDS011;53294;47.912;13.526;2022-10-16T07:56:24;1.60;;;1.15;;
66478;SDS011;53294;47.912;13.526;2022-10-16T07:58:51;7.90;;;3.97;;
66478;SDS011;53294;47.912;13.526;2022-10-16T08:01:18;4.68;;;2.00;;
66478;SDS011;53294;47.912;13.526;2022-10-16T08:03:46;5.63;;;2.85;;
66478;SDS011;53294;47.912;13.526;2022-10-16T08:06:14;4.00;;;1.40;;
66478;SDS011;53294;47.912;13.526;2022-10-16T08:08:43;3.28;;;1.20;;
66478;SDS011;53294;47.912;13.526;2022-10-16T08:11:10;1.92;;;1.20;;
66478;SDS011;53294;47.912;13.526;2022-10-16T08:13:36;6.00;;;1.50;;
66478;SDS011;53294;47.912;13.526;2022-10-16T08:16:03;2.92;;;1.20;;
66478;SDS011;53294;47.912;13.526;2022-10-16T08:18:34;1.85;;;1.20;;
66478;SDS011;53294;47.912;13.526;2022-10-16T08:21:02;2.75;;;1.13;;
66478;SDS011;53294;47.912;13.526;2022-10-16T08:23:30;3.30;;;1.90;;
66478;SDS011;53294;47.912;13.526;2022-10-16T08:26:02;3.15;;;1.50;;
66478;SDS011;53294;47.912;13.526;2022-10-16T08:28:32;5.25;;;1.80;;
66478;SDS011;53294;47.912;13.526;2022-10-16T08:31:09;3.70;;;1.70;;
66478;SDS011;53294;47.912;13.526;2022-10-16T08:33:38;3.00;;;1.40;;
66478;SDS011;53294;47.912;13.526;2022-10-16T08:36:05;4.47;;;1.58;;
66478;SDS011;53294;47.912;13.526;2022-10-16T08:38:33;3.63;;;1.52;;
66478;SDS011;53294;47.912;13.526;2022-10-16T08:44:07;5.82;;;1.80;;
66478;SDS011;53294;47.912;13.526;2022-10-16T08:49:59;3.25;;;1.67;;
66478;SDS011;53294;47.912;13.526;2022-10-16T08:52:32;1.35;;;1.00;;
66478;SDS011;53294;47.912;13.526;2022-10-16T08:55:01;3.05;;;1.23;;
66478;SDS011;53294;47.912;13.526;2022-10-16T08:57:30;4.32;;;1.40;;
66478;SDS011;53294;47.912;13.526;2022-10-16T09:00:00;3.03;;;1.65;;
66478;SDS011;53294;47.912;13.526;2022-10-16T09:02:37;4.68;;;1.33;;
66478;SDS011;53294;47.912;13.526;2022-10-16T09:16:33;4.80;;;1.45;;
66478;SDS011;53294;47.912;13.526;2022-10-16T09:19:16;2.35;;;1.40;;
66478;SDS011;53294;47.912;13.526;2022-10-16T09:21:57;2.75;;;1.20;;
66478;SDS011;53294;47.912;13.526;2022-10-16T09:24:29;4.20;;;1.42;;
66478;SDS011;53294;47.912;13.526;2022-10-16T09:26:56;3.47;;;1.45;;
66478;SDS011;53294;47.912;13.526;2022-10-16T09:29:22;3.45;;;1.10;;
66478;SDS011;53294;47.912;13.526;2022-10-16T09:31:52;3.83;;;1.15;;
66478;SDS011;53294;47.912;13.526;2022-10-16T09:37:07;2.10;;;1.15;;
66478;SDS011;53294;47.912;13.526;2022-10-16T09:39:45;2.35;;;1.05;;
66478;SDS011;53294;47.912;13.526;2022-10-16T09:42:20;1.08;;;0.70;;
66478;SDS011;53294;47.912;13.526;2022-10-16T09:44:51;1.80;;;1.00;;
66478;SDS011;53294;47.912;13.526;2022-10-16T09:47:21;2.53;;;0.90;;
66478;SDS011;53294;47.912;13.526;2022-10-16T09:52:51;1.58;;;1.08;;
66478;SDS011;53294;47.912;13.526;2022-10-16T09:55:18;3.38;;;1.20;;
66478;SDS011;53294;47.912;13.526;2022-10-16T09:57:48;3.65;;;1.73;;
66478;SDS011;53294;47.912;13.526;2022-10-16T10:00:22;4.20;;;2.28;;
66478;SDS011;53294;47.912;13.526;2022-10-16T10:02:49;3.88;;;1.90;;
66478;SDS011;53294;47.912;13.526;2022-10-16T10:05:17;4.25;;;2.10;;
66478;SDS011;53294;47.912;13.526;2022-10-16T10:07:45;6.07;;;1.83;;
66478;SDS011;53294;47.912;13.526;2022-10-16T10:10:20;3.67;;;1.83;;
66478;SDS011;53294;47.912;13.526;2022-10-16T10:12:48;3.22;;;1.80;;
66478;SDS011;53294;47.912;13.526;2022-10-16T10:15:15;3.42;;;1.73;;
66478;SDS011;53294;47.912;13.526;2022-10-16T10:20:31;4.18;;;1.80;;
66478;SDS011;53294;47.912;13.526;2022-10-16T10:23:01;2.67;;;1.48;;
66478;SDS011;53294;47.912;13.526;2022-10-16T10:28:21;5.45;;;1.90;;
66478;SDS011;53294;47.912;13.526;2022-10-16T10:31:06;2.30;;;1.45;;
66478;SDS011;53294;47.912;13.526;2022-10-16T10:36:37;3.97;;;1.60;;
66478;SDS011;53294;47.912;13.526;2022-10-16T10:39:15;5.97;;;1.80;;
66478;SDS011;53294;47.912;13.526;2022-10-16T10:41:59;2.53;;;1.50;;
66478;SDS011;53294;47.912;13.526;2022-10-16T10:44:42;2.78;;;1.60;;
66478;SDS011;53294;47.912;13.526;2022-10-16T10:50:51;2.60;;;1.30;;
66478;SDS011;53294;47.912;13.526;2022-10-16T11:01:39;6.20;;;1.65;;
66478;SDS011;53294;47.912;13.526;2022-10-16T11:07:26;3.33;;;1.48;;
66478;SDS011;53294;47.912;13.526;2022-10-16T11:10:05;5.13;;;1.73;;
66478;SDS011;53294;47.912;13.526;2022-10-16T11:12:44;4.55;;;1.52;;
66478;SDS011;53294;47.912;13.526;2022-10-16T11:15:18;1.83;;;1.38;;
66478;SDS011;53294;47.912;13.526;2022-10-16T11:20:37;3.83;;;1.83;;
66478;SDS011;53294;47.912;13.526;2022-10-16T11:23:12;2.03;;;1.33;;
66478;SDS011;53294;47.912;13.526;2022-10-16T11:25:43;3.88;;;1.58;;
66478;SDS011;53294;47.912;13.526;2022-10-16T11:28:13;3.03;;;1.38;;
66478;SDS011;53294;47.912;13.526;2022-10-16T11:33:32;2.00;;;1.17;;
66478;SDS011;53294;47.912;13.526;2022-10-16T11:41:28;3.30;;;1.10;;
66478;SDS011;53294;47.912;13.526;2022-10-16T11:50:14;1.55;;;1.02;;
66478;SDS011;53294;47.912;13.526;2022-10-16T11:55:51;2.90;;;1.40;;
66478;SDS011;53294;47.912;13.526;2022-10-16T12:08:35;2.10;;;1.38;;
66478;SDS011;53294;47.912;13.526;2022-10-16T12:11:20;2.90;;;1.20;;
66478;SDS011;53294;47.912;13.526;2022-10-16T12:14:19;2.55;;;1.38;;
66478;SDS011;53294;47.912;13.526;2022-10-16T12:16:56;2.25;;;1.50;;
66478;SDS011;53294;47.912;13.526;2022-10-16T12:19:29;3.30;;;1.50;;
66478;SDS011;53294;47.912;13.526;2022-10-16T12:21:57;2.53;;;1.40;;
66478;SDS011;53294;47.912;13.526;2022-10-16T12:27:21;2.65;;;1.30;;
66478;SDS011;53294;47.912;13.526;2022-10-16T12:29:58;2.42;;;1.40;;
66478;SDS011;53294;47.912;13.526;2022-10-16T12:35:23;3.50;;;1.55;;
66478;SDS011;53294;47.912;13.526;2022-10-16T12:37:53;3.58;;;1.55;;
66478;SDS011;53294;47.912;13.526;2022-10-16T12:40:28;2.90;;;1.60;;
66478;SDS011;53294;47.912;13.526;2022-10-16T12:42:57;2.50;;;1.40;;
66478;SDS011;53294;47.912;13.526;2022-10-16T12:45:26;5.05;;;1.25;;
66478;SDS011;53294;47.912;13.526;2022-10-16T12:47:58;4.47;;;1.40;;
66478;SDS011;53294;47.912;13.526;2022-10-16T12:50:30;2.63;;;1.60;;
66478;SDS011;53294;47.912;13.526;2022-10-16T12:53:00;3.33;;;1.50;;
66478;SDS011;53294;47.912;13.526;2022-10-16T12:55:31;4.85;;;1.75;;
66478;SDS011;53294;47.912;13.526;2022-10-16T13:01:10;4.10;;;1.63;;
66478;SDS011;53294;47.912;13.526;2022-10-16T13:06:39;3.65;;;1.50;;
66478;SDS011;53294;47.912;13.526;2022-10-16T13:12:21;2.35;;;1.30;;
66478;SDS011;53294;47.912;13.526;2022-10-16T13:28:09;2.15;;;1.40;;
66478;SDS011;53294;47.912;13.526;2022-10-16T13:30:39;1.85;;;1.05;;
66478;SDS011;53294;47.912;13.526;2022-10-16T13:33:25;5.28;;;2.25;;
66478;SDS011;53294;47.912;13.526;2022-10-16T13:36:03;4.30;;;1.30;;
66478;SDS011;53294;47.912;13.526;2022-10-16T13:38:32;3.50;;;1.50;;
66478;SDS011;53294;47.912;13.526;2022-10-16T13:41:02;3.40;;;1.60;;
66478;SDS011;53294;47.912;13.526;2022-10-16T13:43:53;3.65;;;1.33;;
66478;SDS011;53294;47.912;13.526;2022-10-16T13:46:23;3.75;;;1.50;;
66478;SDS011;53294;47.912;13.526;2022-10-16T13:51:24;3.60;;;1.17;;
66478;SDS011;53294;47.912;13.526;2022-10-16T13:53:51;5.43;;;1.40;;
66478;SDS011;53294;47.912;13.526;2022-10-16T13:56:19;3.33;;;1.30;;
66478;SDS011;53294;47.912;13.526;2022-10-16T13:58:58;2.47;;;1.23;;
66478;SDS011;53294;47.912;13.526;2022-10-16T14:01:28;3.50;;;1.45;;
66478;SDS011;53294;47.912;13.526;2022-10-16T14:04:10;5.00;;;1.50;;
66478;SDS011;53294;47.912;13.526;2022-10-16T14:06:42;8.73;;;2.78;;
66478;SDS011;53294;47.912;13.526;2022-10-16T14:09:19;3.97;;;1.40;;
66478;SDS011;53294;47.912;13.526;2022-10-16T14:11:57;6.00;;;2.30;;
66478;SDS011;53294;47.912;13.526;2022-10-16T14:14:26;2.25;;;1.30;;
66478;SDS011;53294;47.912;13.526;2022-10-16T14:17:00;4.03;;;1.20;;
66478;SDS011;53294;47.912;13.526;2022-10-16T14:19:29;3.75;;;1.25;;
66478;SDS011;53294;47.912;13.526;2022-10-16T14:22:14;3.13;;;1.50;;
66478;SDS011;53294;47.912;13.526;2022-10-16T14:27:45;3.00;;;1.52;;
66478;SDS011;53294;47.912;13.526;2022-10-16T14:30:34;4.13;;;1.70;;
66478;SDS011;53294;47.912;13.526;2022-10-16T14:33:18;2.92;;;1.48;;
66478;SDS011;53294;47.912;13.526;2022-10-16T14:35:58;3.50;;;1.60;;
66478;SDS011;53294;47.912;13.526;2022-10-16T14:38:27;3.40;;;1.50;;
66478;SDS011;53294;47.912;13.526;2022-10-16T14:40:55;3.78;;;1.70;;
66478;SDS011;53294;47.912;13.526;2022-10-16T14:43:30;2.88;;;1.40;;
66478;SDS011;53294;47.912;13.526;2022-10-16T14:46:03;4.10;;;1.40;;
66478;SDS011;53294;47.912;13.526;2022-10-16T14:48:40;2.50;;;1.50;;
66478;SDS011;53294;47.912;13.526;2022-10-16T14:51:11;4.22;;;1.70;;
66478;SDS011;53294;47.912;13.526;2022-10-16T14:53:41;2.88;;;1.40;;
66478;SDS011;53294;47.912;13.526;2022-10-16T14:56:08;4.45;;;1.67;;
66478;SDS011;53294;47.912;13.526;2022-10-16T14:58:40;3.33;;;1.58;;
66478;SDS011;53294;47.912;13.526;2022-10-16T15:01:08;2.78;;;1.48;;
66478;SDS011;53294;47.912;13.526;2022-10-16T15:03:37;3.28;;;1.60;;
66478;SDS011;53294;47.912;13.526;2022-10-16T15:06:08;2.60;;;1.60;;
66478;SDS011;53294;47.912;13.526;2022-10-16T15:08:38;2.63;;;1.30;;
66478;SDS011;53294;47.912;13.526;2022-10-16T15:11:05;3.83;;;1.45;;
66478;SDS011;53294;47.912;13.526;2022-10-16T15:13:38;4.55;;;1.45;;
66478;SDS011;53294;47.912;13.526;2022-10-16T15:16:07;3.10;;;1.40;;
66478;SDS011;53294;47.912;13.526;2022-10-16T15:18:37;2.67;;;1.60;;
66478;SDS011;53294;47.912;13.526;2022-10-16T15:21:03;3.20;;;1.48;;
66478;SDS011;53294;47.912;13.526;2022-10-16T15:23:30;3.60;;;1.50;;
66478;SDS011;53294;47.912;13.526;2022-10-16T15:25:57;4.45;;;1.52;;
66478;SDS011;53294;47.912;13.526;2022-10-16T15:28:24;2.92;;;1.48;;
66478;SDS011;53294;47.912;13.526;2022-10-16T15:30:52;3.17;;;1.60;;
66478;SDS011;53294;47.912;13.526;2022-10-16T15:33:21;1.67;;;1.38;;
66478;SDS011;53294;47.912;13.526;2022-10-16T15:35:54;5.50;;;1.50;;
66478;SDS011;53294;47.912;13.526;2022-10-16T15:38:21;3.45;;;1.40;;
66478;SDS011;53294;47.912;13.526;2022-10-16T15:40:49;3.70;;;1.50;;
66478;SDS011;53294;47.912;13.526;2022-10-16T15:43:16;7.28;;;2.03;;
66478;SDS011;53294;47.912;13.526;2022-10-16T15:45:43;3.97;;;1.70;;
66478;SDS011;53294;47.912;13.526;2022-10-16T15:48:10;3.50;;;1.55;;
66478;SDS011;53294;47.912;13.526;2022-10-16T15:50:38;4.70;;;1.45;;
66478;SDS011;53294;47.912;13.526;2022-10-16T15:53:06;2.88;;;1.63;;
66478;SDS011;53294;47.912;13.526;2022-10-16T15:55:33;5.45;;;1.80;;
66478;SDS011;53294;47.912;13.526;2022-10-16T15:58:00;3.08;;;1.70;;
66478;SDS011;53294;47.912;13.526;2022-10-16T16:00:26;3.72;;;2.08;;
66478;SDS011;53294;47.912;13.526;2022-10-16T16:02:53;3.78;;;1.92;;
66478;SDS011;53294;47.912;13.526;2022-10-16T16:05:20;3.88;;;2.08;;
66478;SDS011;53294;47.912;13.526;2022-10-16T16:07:48;3.80;;;1.50;;
66478;SDS011;53294;47.912;13.526;2022-10-16T16:10:15;2.97;;;1.70;;
66478;SDS011;53294;47.912;13.526;2022-10-16T16:12:42;7.38;;;2.30;;
66478;SDS011;53294;47.912;13.526;2022-10-16T16:15:15;5.97;;;2.20;;
66478;SDS011;53294;47.912;13.526;2022-10-16T16:17:42;4.55;;;1.77;;
66478;SDS011;53294;47.912;13.526;2022-10-16T16:20:10;5.85;;;1.88;;
66478;SDS011;53294;47.912;13.526;2022-10-16T16:22:37;3.70;;;1.70;;
66478;SDS011;53294;47.912;13.526;2022-10-16T16:25:04;4.35;;;1.58;;
66478;SDS011;53294;47.912;13.526;2022-10-16T16:27:31;2.67;;;1.65;;
66478;SDS011;53294;47.912;13.526;2022-10-16T16:30:00;5.45;;;1.40;;
66478;SDS011;53294;47.912;13.526;2022-10-16T16:32:29;5.10;;;2.08;;
66478;SDS011;53294;47.912;13.526;2022-10-16T16:34:56;6.18;;;1.85;;
66478;SDS011;53294;47.912;13.526;2022-10-16T16:37:23;5.47;;;1.60;;
66478;SDS011;53294;47.912;13.526;2022-10-16T16:39:50;3.22;;;1.70;;
66478;SDS011;53294;47.912;13.526;2022-10-16T16:42:17;4.00;;;1.95;;
66478;SDS011;53294;47.912;13.526;2022-10-16T16:44:43;3.83;;;2.15;;
66478;SDS011;53294;47.912;13.526;2022-10-16T16:47:10;3.60;;;2.25;;
66478;SDS011;53294;47.912;13.526;2022-10-16T16:49:37;3.95;;;2.00;;
66478;SDS011;53294;47.912;13.526;2022-10-16T16:52:03;5.82;;;2.35;;
66478;SDS011;53294;47.912;13.526;2022-10-16T16:54:30;3.60;;;1.98;;
66478;SDS011;53294;47.912;13.526;2022-10-16T16:56:57;6.03;;;1.98;;
66478;SDS011;53294;47.912;13.526;2022-10-16T16:59:23;4.43;;;3.13;;